createdAt,value
2022-12-13T00:01:16.591Z,74.97
2022-12-13T00:03:43.685Z,62.67
2022-12-13T00:06:11.963Z,66.57
2022-12-13T00:08:38.909Z,61.47
2022-12-13T00:11:07.658Z,61.83
2022-12-13T00:13:34.401Z,62.55
2022-12-13T00:16:03.978Z,61.10
2022-12-13T00:18:31.061Z,63.65
2022-12-13T00:20:58.693Z,62.08
2022-12-13T00:23:25.380Z,65.22
2022-12-13T00:25:51.915Z,61.80
2022-12-13T00:28:18.465Z,57.83
2022-12-13T00:30:45.686Z,60.60
2022-12-13T00:33:15.246Z,65.50
2022-12-13T00:35:42.210Z,63.35
2022-12-13T00:38:10.361Z,63.03
2022-12-13T00:40:36.938Z,57.58
2022-12-13T00:43:06.636Z,61.08
2022-12-13T00:45:33.766Z,60.80
2022-12-13T00:48:00.376Z,59.53
2022-12-13T00:50:27.061Z,62.75
2022-12-13T00:52:53.846Z,62.67
2022-12-13T00:55:20.329Z,57.65
2022-12-13T00:57:46.954Z,61.72
2022-12-13T01:00:13.632Z,59.53
2022-12-13T01:02:43.524Z,59.60
2022-12-13T01:05:11.356Z,62.78
2022-12-13T01:07:40.124Z,67.57
2022-12-13T01:10:07.910Z,58.22
2022-12-13T01:12:35.237Z,60.17
2022-12-13T01:15:02.073Z,59.35
2022-12-13T01:17:28.627Z,66.85
2022-12-13T01:19:55.247Z,60.30
2022-12-13T01:22:24.089Z,55.47
2022-12-13T01:24:50.932Z,60.38
2022-12-13T01:27:18.056Z,62.17
2022-12-13T01:29:44.678Z,61.72
2022-12-13T01:32:11.196Z,58.65
2022-12-13T01:34:37.799Z,64.53
2022-12-13T01:37:04.514Z,56.33
2022-12-13T01:39:31.210Z,60.92
2022-12-13T01:42:04.960Z,61.58
2022-12-13T01:44:56.208Z,57.40
2022-12-13T01:47:45.330Z,56.08
2022-12-13T01:50:22.358Z,54.20
2022-12-13T01:52:49.891Z,53.38
2022-12-13T01:55:22.392Z,55.00
2022-12-13T01:57:51.664Z,53.28
2022-12-13T02:00:18.803Z,58.03
2022-12-13T02:02:46.808Z,53.05
2022-12-13T02:05:36.439Z,54.58
2022-12-13T02:08:06.201Z,53.80
2022-12-13T02:10:32.993Z,61.75
2022-12-13T02:12:59.538Z,61.80
2022-12-13T02:15:31.330Z,58.45
2022-12-13T02:18:19.701Z,63.88
2022-12-13T02:20:55.210Z,62.55
2022-12-13T02:23:55.452Z,59.05
2022-12-13T02:26:34.251Z,59.10
2022-12-13T02:29:38.505Z,60.00
2022-12-13T02:32:10.800Z,58.65
2022-12-13T02:34:43.356Z,57.35
2022-12-13T02:37:17.945Z,60.95
2022-12-13T02:39:56.424Z,60.70
2022-12-13T02:42:34.919Z,61.75
2022-12-13T02:45:20.352Z,61.50
2022-12-13T02:47:49.735Z,54.53
2022-12-13T02:50:16.932Z,56.08
2022-12-13T02:52:46.536Z,59.22
2022-12-13T02:55:16.661Z,61.88
2022-12-13T02:57:45.185Z,58.58
2022-12-13T03:00:19.253Z,52.75
2022-12-13T03:02:46.661Z,58.95
2022-12-13T03:05:49.251Z,63.22
2022-12-13T03:08:44.619Z,57.95
2022-12-13T03:11:14.940Z,58.75
2022-12-13T03:14:13.654Z,57.17
2022-12-13T03:16:44.367Z,53.20
2022-12-13T03:19:13.637Z,59.30
2022-12-13T03:21:47.280Z,52.53
2022-12-13T03:24:17.279Z,54.50
2022-12-13T03:26:44.623Z,48.88
2022-12-13T03:29:11.251Z,50.33
2022-12-13T03:31:37.884Z,58.20
2022-12-13T03:34:04.447Z,56.10
2022-12-13T03:36:34.307Z,49.45
2022-12-13T03:39:00.951Z,49.78
2022-12-13T03:41:35.757Z,51.90
2022-12-13T03:44:07.634Z,47.42
2022-12-13T03:46:34.809Z,54.15
2022-12-13T03:49:01.750Z,50.78
2022-12-13T03:51:28.351Z,53.70
2022-12-13T03:53:54.945Z,50.03
2022-12-13T03:56:21.729Z,53.15
2022-12-13T03:58:48.276Z,51.05
2022-12-13T04:01:17.063Z,55.38
2022-12-13T04:03:46.417Z,50.92
2022-12-13T04:06:22.857Z,49.17
2022-12-13T04:08:51.676Z,57.53
2022-12-13T04:11:43.260Z,52.42
2022-12-13T04:14:11.424Z,56.50
2022-12-13T04:16:38.060Z,53.95
2022-12-13T04:19:04.769Z,60.35
2022-12-13T04:21:31.377Z,52.08
2022-12-13T04:24:00.964Z,54.08
2022-12-13T04:26:29.617Z,59.45
2022-12-13T04:28:56.400Z,64.05
2022-12-13T04:31:23.397Z,52.22
2022-12-13T04:33:50.901Z,57.15
2022-12-13T04:36:31.952Z,57.45
2022-12-13T04:39:22.256Z,50.53
2022-12-13T04:41:53.208Z,55.75
2022-12-13T04:44:27.903Z,57.38
2022-12-13T04:47:22.698Z,54.08
2022-12-13T04:49:49.366Z,56.88
2022-12-13T04:52:22.160Z,55.30
2022-12-13T04:54:55.783Z,56.70
2022-12-13T04:57:22.974Z,52.58
2022-12-13T04:59:49.797Z,56.20
2022-12-13T05:02:23.921Z,58.72
2022-12-13T05:04:53.875Z,47.78
2022-12-13T05:07:23.158Z,59.83
2022-12-13T05:09:49.858Z,53.25
2022-12-13T05:12:23.257Z,62.40
2022-12-13T05:14:51.573Z,62.80
2022-12-13T05:17:18.282Z,58.95
2022-12-13T05:19:45.098Z,55.33
2022-12-13T05:22:20.616Z,56.17
2022-12-13T05:24:55.739Z,58.97
2022-12-13T05:27:24.426Z,56.70
2022-12-13T05:30:02.402Z,52.22
2022-12-13T05:32:42.644Z,55.23
2022-12-13T05:35:22.628Z,50.72
2022-12-13T05:40:26.196Z,48.22
2022-12-13T05:43:01.049Z,51.92
2022-12-13T05:45:29.665Z,47.30
2022-12-13T05:47:56.289Z,56.30
2022-12-13T05:50:23.395Z,53.90
2022-12-13T05:52:50.270Z,53.70
2022-12-13T05:55:19.946Z,63.83
2022-12-13T05:57:50.714Z,65.88
2022-12-13T06:00:29.191Z,60.35
2022-12-13T06:03:00.467Z,59.42
2022-12-13T06:05:31.611Z,57.22
2022-12-13T06:07:58.928Z,60.53
2022-12-13T06:10:34.255Z,54.17
2022-12-13T06:13:20.939Z,54.78
2022-12-13T06:15:49.522Z,60.17
2022-12-13T06:18:16.214Z,60.30
2022-12-13T06:20:42.761Z,58.60
2022-12-13T06:23:09.445Z,57.92
2022-12-13T06:25:36.941Z,59.95
2022-12-13T06:28:03.645Z,60.72
2022-12-13T06:30:31.170Z,53.50
2022-12-13T06:32:57.804Z,57.38
2022-12-13T06:35:27.982Z,60.78
2022-12-13T06:38:01.484Z,56.85
2022-12-13T06:40:31.884Z,55.20
2022-12-13T06:42:58.487Z,51.28
2022-12-13T06:45:25.406Z,55.67
2022-12-13T06:47:52.019Z,63.17
2022-12-13T06:50:18.719Z,56.08
2022-12-13T06:52:48.410Z,63.53
2022-12-13T06:55:15.396Z,62.95
2022-12-13T06:57:51.007Z,62.05
2022-12-13T07:00:22.458Z,57.38
2022-12-13T07:02:54.599Z,67.72
2022-12-13T07:05:21.969Z,56.47
2022-12-13T07:07:48.694Z,51.15
2022-12-13T07:10:21.904Z,60.17
2022-12-13T07:12:49.899Z,56.95
2022-12-13T07:15:16.580Z,57.70
2022-12-13T07:17:43.197Z,56.55
2022-12-13T07:20:10.280Z,57.00
2022-12-13T07:22:43.235Z,64.72
2022-12-13T07:25:26.954Z,58.15
2022-12-13T07:28:04.238Z,55.08
2022-12-13T07:30:33.619Z,57.92
2022-12-13T07:33:05.007Z,59.30
2022-12-13T07:35:37.234Z,57.80
2022-12-13T07:38:09.369Z,64.75
2022-12-13T07:40:38.370Z,56.83
2022-12-13T07:43:06.140Z,62.00
2022-12-13T07:45:33.363Z,62.80
2022-12-13T07:48:04.451Z,67.25
2022-12-13T07:50:37.316Z,58.45
2022-12-13T07:53:08.669Z,61.22
2022-12-13T07:55:36.737Z,55.72
2022-12-13T07:58:14.644Z,63.13
2022-12-13T08:00:46.411Z,64.78
2022-12-13T08:03:24.098Z,61.25
2022-12-13T08:06:06.745Z,61.75
2022-12-13T08:08:34.225Z,60.00
2022-12-13T08:11:05.755Z,67.28
2022-12-13T08:13:33.266Z,59.20
2022-12-13T08:16:01.831Z,62.58
2022-12-13T08:18:29.752Z,66.70
2022-12-13T08:21:10.445Z,58.70
2022-12-13T08:23:50.719Z,61.00
2022-12-13T08:26:17.468Z,71.53
2022-12-13T08:28:44.240Z,64.93
2022-12-13T08:31:12.623Z,62.92
2022-12-13T08:33:40.656Z,62.17
2022-12-13T08:36:17.803Z,64.88
2022-12-13T08:38:45.482Z,71.68
2022-12-13T08:41:13.139Z,68.57
2022-12-13T08:43:40.783Z,61.65
2022-12-13T08:46:07.496Z,72.90
2022-12-13T08:48:34.535Z,67.78
2022-12-13T08:51:35.914Z,74.22
2022-12-13T08:54:09.965Z,89.45
2022-12-13T08:56:38.280Z,77.32
2022-12-13T08:59:05.046Z,75.65
2022-12-13T09:01:32.843Z,62.10
2022-12-13T09:03:59.521Z,61.25
2022-12-13T09:06:26.205Z,63.70
2022-12-13T09:08:54.558Z,63.67
2022-12-13T09:11:36.533Z,64.95
2022-12-13T09:14:04.866Z,64.90
2022-12-13T09:16:35.692Z,66.82
2022-12-13T09:19:24.724Z,69.78
2022-12-13T09:21:51.482Z,68.67
2022-12-13T09:24:24.461Z,66.00
2022-12-13T09:26:57.329Z,59.10
2022-12-13T09:29:24.528Z,61.22
2022-12-13T09:31:53.428Z,65.55
2022-12-13T09:34:20.293Z,72.38
2022-12-13T09:36:47.075Z,66.82
2022-12-13T09:39:13.646Z,64.05
2022-12-13T09:41:51.028Z,59.72
2022-12-13T09:44:32.611Z,64.18
2022-12-13T09:47:03.460Z,60.17
2022-12-13T09:49:36.871Z,67.03
2022-12-13T09:52:10.585Z,65.40
2022-12-13T09:54:47.856Z,70.82
2022-12-13T09:57:32.777Z,60.83
2022-12-13T10:00:08.008Z,59.17
2022-12-13T10:02:46.854Z,62.20
2022-12-13T10:05:42.368Z,58.92
2022-12-13T10:08:16.725Z,62.88
2022-12-13T10:10:46.265Z,63.72
2022-12-13T10:15:48.525Z,68.72
2022-12-13T10:18:34.107Z,55.35
2022-12-13T10:21:04.837Z,62.25
2022-12-13T10:23:42.594Z,61.17
2022-12-13T10:26:24.207Z,61.45
2022-12-13T10:29:02.868Z,59.50
2022-12-13T10:31:29.582Z,60.13
2022-12-13T10:34:04.765Z,55.22
2022-12-13T10:36:38.399Z,65.15
2022-12-13T10:39:40.438Z,65.40
2022-12-13T10:42:22.645Z,57.63
2022-12-13T10:45:22.979Z,82.72
2022-12-13T10:47:50.899Z,79.95
2022-12-13T10:50:29.278Z,73.13
2022-12-13T10:52:57.755Z,58.45
2022-12-13T10:55:33.623Z,55.80
2022-12-13T10:58:19.359Z,58.83
2022-12-13T11:00:49.111Z,57.08
2022-12-13T11:03:32.919Z,67.13
2022-12-13T11:06:26.918Z,64.85
2022-12-13T11:08:54.660Z,54.05
2022-12-13T11:11:30.192Z,54.33
2022-12-13T11:14:01.583Z,51.75
2022-12-13T11:16:33.940Z,51.00
2022-12-13T11:19:04.428Z,50.22
2022-12-13T11:21:37.443Z,52.60
2022-12-13T11:24:08.035Z,46.45
2022-12-13T11:26:39.170Z,46.05
2022-12-13T11:29:30.740Z,40.63
2022-12-13T11:32:15.658Z,47.45
2022-12-13T11:35:03.183Z,47.88
2022-12-13T11:37:45.322Z,48.20
2022-12-13T11:40:16.821Z,42.22
2022-12-13T11:42:50.011Z,41.10
2022-12-13T11:45:39.894Z,53.03
2022-12-13T11:48:09.627Z,44.35
2022-12-13T11:50:40.530Z,45.78
2022-12-13T11:53:23.269Z,41.72
2022-12-13T11:55:59.452Z,38.55
2022-12-13T11:59:01.103Z,40.65
2022-12-13T12:01:23.560Z,38.70
2022-12-13T12:03:53.964Z,41.92
2022-12-13T12:06:22.620Z,38.50
2022-12-13T12:09:07.337Z,29.40
2022-12-13T12:11:46.289Z,38.90
2022-12-13T12:14:22.152Z,39.72
2022-12-13T12:16:59.823Z,49.60
2022-12-13T12:19:38.131Z,46.63
2022-12-13T12:22:22.929Z,36.95
2022-12-13T12:25:07.824Z,38.70
2022-12-13T12:27:36.811Z,43.15
2022-12-13T12:30:12.377Z,40.83
2022-12-13T12:33:26.824Z,39.47
2022-12-13T12:36:13.951Z,37.67
2022-12-13T12:38:49.369Z,39.53
2022-12-13T12:41:39.330Z,41.65
2022-12-13T12:44:50.534Z,37.97
2022-12-13T12:47:57.812Z,40.55
2022-12-13T12:50:44.395Z,44.30
2022-12-13T12:53:26.873Z,41.47
2022-12-13T12:56:16.223Z,42.95
2022-12-13T12:59:19.950Z,38.55
2022-12-13T13:02:18.248Z,43.85
2022-12-13T13:04:50.086Z,42.50
2022-12-13T13:07:24.159Z,40.38
2022-12-13T13:09:55.136Z,44.20
2022-12-13T13:12:30.441Z,45.85
2022-12-13T13:14:58.642Z,43.30
2022-12-13T13:17:25.345Z,42.15
2022-12-13T13:20:23.443Z,47.75
2022-12-13T13:23:10.309Z,45.15
2022-12-13T13:25:54.370Z,48.13
2022-12-13T13:28:25.809Z,40.22
2022-12-13T13:31:19.174Z,44.90
2022-12-13T13:33:48.289Z,38.10
2022-12-13T13:36:40.518Z,40.72
2022-12-13T13:39:54.425Z,41.53
2022-12-13T13:42:25.648Z,38.70
2022-12-13T13:44:52.422Z,36.75
2022-12-13T13:47:25.001Z,43.17
2022-12-13T13:50:12.988Z,39.75
2022-12-13T13:53:01.889Z,38.50
2022-12-13T13:55:43.620Z,42.40
2022-12-13T13:58:37.083Z,40.00
2022-12-13T14:01:35.912Z,35.97
2022-12-13T14:04:28.063Z,38.13
2022-12-13T14:07:27.334Z,39.30
2022-12-13T14:10:05.587Z,46.40
2022-12-13T14:13:06.790Z,36.42
2022-12-13T14:16:12.299Z,39.63
2022-12-13T14:19:29.390Z,40.03
2022-12-13T14:22:14.522Z,36.42
2022-12-13T14:25:09.931Z,41.45
2022-12-13T14:27:48.573Z,45.72
2022-12-13T14:30:27.818Z,44.27
2022-12-13T14:32:56.888Z,41.38
2022-12-13T14:35:26.923Z,41.83
2022-12-13T14:37:57.895Z,41.95
2022-12-13T14:40:33.816Z,36.35
2022-12-13T14:43:03.030Z,41.38
2022-12-13T14:45:39.683Z,42.58
2022-12-13T14:48:15.384Z,39.97
2022-12-13T14:50:44.572Z,47.80
2022-12-13T14:53:43.237Z,43.05
2022-12-13T14:56:28.034Z,37.17
2022-12-13T14:59:13.991Z,43.03
2022-12-13T15:01:41.349Z,42.92
2022-12-13T15:04:30.298Z,41.15
2022-12-13T15:07:14.328Z,40.83
2022-12-13T15:09:44.190Z,43.10
2022-12-13T15:12:25.322Z,47.97
2022-12-13T15:15:01.416Z,42.08
2022-12-13T15:17:39.591Z,45.88
2022-12-13T15:20:30.569Z,56.55
2022-12-13T15:23:11.993Z,64.72
2022-12-13T15:25:41.797Z,58.90
2022-12-13T15:28:18.253Z,54.50
2022-12-13T15:30:48.734Z,53.42
2022-12-13T15:33:18.218Z,51.63
2022-12-13T15:35:47.959Z,59.58
2022-12-13T15:38:28.118Z,55.88
2022-12-13T15:40:56.240Z,53.47
2022-12-13T15:43:32.361Z,54.67
2022-12-13T15:45:59.855Z,55.17
2022-12-13T15:48:37.859Z,57.50
2022-12-13T15:51:13.435Z,60.70
2022-12-13T15:54:11.172Z,56.83
2022-12-13T15:57:02.004Z,54.15
2022-12-13T15:59:30.105Z,59.40
2022-12-13T16:01:58.711Z,54.72
2022-12-13T16:04:31.087Z,56.30
2022-12-13T16:06:57.868Z,49.70
2022-12-13T16:09:27.713Z,51.83
2022-12-13T16:12:03.520Z,51.72
2022-12-13T16:14:30.567Z,55.45
2022-12-13T16:17:25.239Z,55.03
2022-12-13T16:19:53.561Z,62.10
2022-12-13T16:22:23.557Z,59.40
2022-12-13T16:24:51.844Z,54.60
2022-12-13T16:27:19.744Z,55.20
2022-12-13T16:29:46.514Z,60.67
2022-12-13T16:32:13.230Z,54.63
2022-12-13T16:34:40.042Z,51.85
2022-12-13T16:37:08.666Z,67.55
2022-12-13T16:39:52.836Z,58.17
2022-12-13T16:42:19.534Z,57.53
2022-12-13T16:44:48.659Z,64.88
2022-12-13T16:47:24.425Z,56.63
2022-12-13T16:50:08.360Z,56.65
2022-12-13T16:52:43.180Z,56.60
2022-12-13T16:55:13.387Z,62.78
2022-12-13T16:57:40.027Z,57.30
2022-12-13T17:00:09.958Z,56.85
2022-12-13T17:02:37.515Z,58.15
2022-12-13T17:05:05.838Z,61.35
2022-12-13T17:07:33.405Z,61.25
2022-12-13T17:10:00.177Z,55.72
2022-12-13T17:12:26.782Z,59.55
2022-12-13T17:14:54.411Z,57.35
2022-12-13T17:17:45.490Z,57.55
2022-12-13T17:20:15.586Z,65.68
2022-12-13T17:22:43.504Z,56.47
2022-12-13T17:25:10.871Z,56.35
2022-12-13T17:27:38.141Z,56.42
2022-12-13T17:30:08.375Z,64.97
2022-12-13T17:32:36.285Z,60.15
2022-12-13T17:35:04.205Z,64.97
2022-12-13T17:37:32.142Z,68.10
2022-12-13T17:39:58.937Z,70.85
2022-12-13T17:42:26.036Z,76.50
2022-12-13T17:44:53.653Z,94.45
2022-12-13T17:47:20.902Z,98.78
2022-12-13T17:49:47.487Z,93.05
2022-12-13T17:52:14.035Z,79.80
2022-12-13T17:54:40.743Z,85.50
2022-12-13T17:57:10.252Z,73.55
2022-12-13T18:02:22.619Z,67.13
2022-12-13T18:07:17.976Z,58.38
2022-12-13T18:09:45.053Z,58.80
2022-12-13T18:12:12.623Z,64.10
2022-12-13T18:14:42.236Z,51.17
2022-12-13T18:19:35.228Z,53.13
2022-12-13T18:22:01.738Z,54.92
2022-12-13T18:24:28.247Z,48.80
2022-12-13T18:26:55.144Z,56.72
2022-12-13T18:29:21.672Z,47.25
2022-12-13T18:31:48.221Z,47.17
2022-12-13T18:34:14.737Z,42.60
2022-12-13T18:36:41.363Z,54.42
2022-12-13T18:39:08.037Z,45.00
2022-12-13T18:41:34.730Z,43.78
2022-12-13T18:44:04.626Z,39.33
2022-12-13T18:46:35.001Z,37.92
2022-12-13T18:49:02.240Z,36.10
2022-12-13T18:51:28.841Z,43.28
2022-12-13T18:53:56.252Z,36.65
2022-12-13T18:56:23.715Z,42.88
2022-12-13T18:58:50.975Z,39.95
2022-12-13T19:01:19.157Z,40.08
2022-12-13T19:03:47.445Z,35.95
2022-12-13T19:06:26.402Z,36.85
2022-12-13T19:08:56.299Z,29.52
2022-12-13T19:11:24.491Z,34.30
2022-12-13T19:13:51.282Z,36.83
2022-12-13T19:16:20.492Z,38.90
2022-12-13T19:18:48.306Z,37.50
2022-12-13T19:21:18.519Z,38.63
2022-12-13T19:23:49.500Z,41.63
2022-12-13T19:26:21.462Z,37.65
2022-12-13T19:28:48.231Z,39.55
2022-12-13T19:31:15.728Z,38.85
2022-12-13T19:33:42.976Z,38.78
2022-12-13T19:36:12.671Z,47.42
2022-12-13T19:38:41.804Z,34.03
2022-12-13T19:41:14.593Z,43.72
2022-12-13T19:43:42.131Z,39.72
2022-12-13T19:46:09.699Z,32.53
2022-12-13T19:48:40.317Z,33.92
2022-12-13T19:51:08.630Z,39.00
2022-12-13T19:53:39.097Z,35.97
2022-12-13T19:56:24.451Z,38.40
2022-12-13T19:58:51.403Z,37.53
2022-12-13T20:01:18.812Z,40.38
2022-12-13T20:03:47.104Z,36.58
2022-12-13T20:06:20.458Z,36.83
2022-12-13T20:08:47.296Z,37.83
2022-12-13T20:11:19.307Z,37.60
2022-12-13T20:13:47.100Z,37.20
2022-12-13T20:16:19.173Z,40.65
2022-12-13T20:18:46.909Z,36.38
2022-12-13T20:21:14.864Z,38.17
2022-12-13T20:23:49.439Z,30.13
2022-12-13T20:26:21.079Z,31.35
2022-12-13T20:28:51.245Z,31.25
2022-12-13T20:31:20.861Z,28.55
2022-12-13T20:33:58.686Z,32.72
2022-12-13T20:36:27.904Z,32.63
2022-12-13T20:39:02.303Z,29.42
2022-12-13T20:41:31.853Z,33.47
2022-12-13T20:43:59.846Z,33.75
2022-12-13T20:46:28.179Z,29.30
2022-12-13T20:48:56.201Z,28.65
2022-12-13T20:51:25.514Z,28.42
2022-12-13T20:53:53.170Z,31.88
2022-12-13T20:56:22.972Z,29.40
2022-12-13T21:01:20.032Z,28.85
2022-12-13T21:03:47.006Z,28.15
2022-12-13T21:06:13.900Z,35.17
2022-12-13T21:08:53.984Z,31.15
2022-12-13T21:11:26.560Z,33.15
2022-12-13T21:14:06.920Z,34.22
2022-12-13T21:16:46.926Z,28.38
2022-12-13T21:19:19.350Z,30.92
2022-12-13T21:21:47.196Z,27.77
2022-12-13T21:24:15.858Z,30.73
2022-12-13T21:26:42.784Z,32.37
2022-12-13T21:29:13.431Z,26.92
2022-12-13T21:31:44.416Z,28.58
2022-12-13T21:34:16.514Z,30.08
2022-12-13T21:36:45.698Z,27.20
2022-12-13T21:39:18.518Z,30.52
2022-12-13T21:41:45.649Z,28.52
2022-12-13T21:44:15.040Z,28.05
2022-12-13T21:49:28.956Z,28.23
2022-12-13T21:51:55.821Z,27.80
2022-12-13T21:54:22.783Z,29.17
2022-12-13T21:57:08.278Z,24.38
2022-12-13T21:59:34.993Z,23.52
2022-12-13T22:02:18.222Z,25.10
2022-12-13T22:04:49.153Z,24.33
2022-12-13T22:07:27.592Z,27.67
2022-12-13T22:09:55.424Z,28.42
2022-12-13T22:12:35.681Z,27.17
2022-12-13T22:15:04.703Z,22.15
2022-12-13T22:17:35.653Z,25.67
2022-12-13T22:20:06.052Z,24.40
2022-12-13T22:22:32.652Z,26.98
2022-12-13T22:24:59.398Z,27.75
2022-12-13T22:27:26.286Z,24.40
2022-12-13T22:29:57.640Z,23.00
2022-12-13T22:32:30.082Z,21.45
2022-12-13T22:34:57.413Z,21.23
2022-12-13T22:37:24.830Z,22.83
2022-12-13T22:39:51.719Z,21.75
2022-12-13T22:42:21.875Z,18.75
2022-12-13T22:44:48.784Z,21.15
2022-12-13T22:47:15.717Z,22.48
2022-12-13T22:49:42.291Z,20.27
2022-12-13T22:52:08.857Z,24.58
2022-12-13T22:54:35.846Z,20.10
2022-12-13T22:57:02.767Z,21.77
2022-12-13T22:59:29.447Z,24.40
2022-12-13T23:02:02.054Z,23.52
2022-12-13T23:04:29.202Z,23.52
2022-12-13T23:06:56.524Z,23.85
2022-12-13T23:09:23.231Z,20.38
2022-12-13T23:12:08.610Z,22.02
2022-12-13T23:14:36.470Z,22.10
2022-12-13T23:17:04.376Z,23.70
2022-12-13T23:19:41.612Z,22.83
2022-12-13T23:22:18.155Z,23.30
2022-12-13T23:24:44.732Z,24.45
2022-12-13T23:27:11.328Z,23.67
2022-12-13T23:29:38.167Z,24.38
2022-12-13T23:32:04.844Z,25.45
2022-12-13T23:34:31.504Z,21.02
2022-12-13T23:36:58.372Z,21.83
2022-12-13T23:39:24.981Z,22.48
2022-12-13T23:41:51.539Z,25.40
2022-12-13T23:44:19.018Z,23.13
2022-12-13T23:46:48.145Z,29.83
2022-12-13T23:51:42.181Z,21.55
2022-12-13T23:54:09.787Z,23.77
2022-12-13T23:56:36.361Z,21.13
2022-12-13T23:59:02.935Z,20.15
